sensor_id;sensor_type;location;lat;lon;timestamp;pressure;altitude;pressure_sealevel;temperature
41940;BMP180;23057;48.554;14.454;2023-11-22T00:00:11;93629.00;;;10.10
41940;BMP180;23057;48.554;14.454;2023-11-22T00:02:43;93633.00;;;10.10
41940;BMP180;23057;48.554;14.454;2023-11-22T00:05:14;93640.00;;;10.00
41940;BMP180;23057;48.554;14.454;2023-11-22T00:07:45;93641.00;;;9.90
41940;BMP180;23057;48.554;14.454;2023-11-22T00:10:16;93644.00;;;9.90
41940;BMP180;23057;48.554;14.454;2023-11-22T00:12:47;93652.00;;;9.90
41940;BMP180;23057;48.554;14.454;2023-11-22T00:15:18;93650.00;;;9.80
41940;BMP180;23057;48.554;14.454;2023-11-22T00:17:48;93657.00;;;9.80
41940;BMP180;23057;48.554;14.454;2023-11-22T00:20:19;93656.00;;;9.80
41940;BMP180;23057;48.554;14.454;2023-11-22T00:22:51;93665.00;;;9.80
41940;BMP180;23057;48.554;14.454;2023-11-22T00:25:22;93652.00;;;9.70
41940;BMP180;23057;48.554;14.454;2023-11-22T00:27:53;93651.00;;;9.60
41940;BMP180;23057;48.554;14.454;2023-11-22T00:30:24;93670.00;;;9.50
41940;BMP180;23057;48.554;14.454;2023-11-22T00:32:54;93670.00;;;9.40
41940;BMP180;23057;48.554;14.454;2023-11-22T00:35:25;93683.00;;;9.30
41940;BMP180;23057;48.554;14.454;2023-11-22T00:37:56;93693.00;;;9.30
41940;BMP180;23057;48.554;14.454;2023-11-22T00:40:28;93691.00;;;9.20
41940;BMP180;23057;48.554;14.454;2023-11-22T00:42:59;93695.00;;;9.10
41940;BMP180;23057;48.554;14.454;2023-11-22T00:45:30;93706.00;;;9.10
41940;BMP180;23057;48.554;14.454;2023-11-22T00:48:01;93699.00;;;9.00
41940;BMP180;23057;48.554;14.454;2023-11-22T00:50:32;93710.00;;;9.00
41940;BMP180;23057;48.554;14.454;2023-11-22T00:53:03;93701.00;;;8.90
41940;BMP180;23057;48.554;14.454;2023-11-22T00:55:34;93709.00;;;8.90
41940;BMP180;23057;48.554;14.454;2023-11-22T00:58:05;93710.00;;;8.90
41940;BMP180;23057;48.554;14.454;2023-11-22T01:00:36;93703.00;;;8.90
41940;BMP180;23057;48.554;14.454;2023-11-22T01:03:07;93698.00;;;8.90
41940;BMP180;23057;48.554;14.454;2023-11-22T01:05:42;93712.00;;;8.80
41940;BMP180;23057;48.554;14.454;2023-11-22T01:08:13;93700.00;;;8.80
41940;BMP180;23057;48.554;14.454;2023-11-22T01:10:44;93702.00;;;8.70
41940;BMP180;23057;48.554;14.454;2023-11-22T01:13:16;93701.00;;;8.70
41940;BMP180;23057;48.554;14.454;2023-11-22T01:15:47;93691.00;;;8.60
41940;BMP180;23057;48.554;14.454;2023-11-22T01:18:18;93690.00;;;8.70
41940;BMP180;23057;48.554;14.454;2023-11-22T01:20:49;93694.00;;;8.60
41940;BMP180;23057;48.554;14.454;2023-11-22T01:23:20;93689.00;;;8.50
41940;BMP180;23057;48.554;14.454;2023-11-22T01:25:51;93682.00;;;8.50
41940;BMP180;23057;48.554;14.454;2023-11-22T01:28:21;93681.00;;;8.40
41940;BMP180;23057;48.554;14.454;2023-11-22T01:30:53;93674.00;;;8.30
41940;BMP180;23057;48.554;14.454;2023-11-22T01:33:27;93688.00;;;8.20
41940;BMP180;23057;48.554;14.454;2023-11-22T01:35:58;93692.00;;;8.20
41940;BMP180;23057;48.554;14.454;2023-11-22T01:38:29;93697.00;;;8.20
41940;BMP180;23057;48.554;14.454;2023-11-22T01:41:00;93695.00;;;8.10
41940;BMP180;23057;48.554;14.454;2023-11-22T01:43:32;93710.00;;;8.10
41940;BMP180;23057;48.554;14.454;2023-11-22T01:46:03;93694.00;;;8.00
41940;BMP180;23057;48.554;14.454;2023-11-22T01:48:35;93696.00;;;8.00
41940;BMP180;23057;48.554;14.454;2023-11-22T01:51:07;93691.00;;;7.90
41940;BMP180;23057;48.554;14.454;2023-11-22T01:53:39;93684.00;;;7.90
41940;BMP180;23057;48.554;14.454;2023-11-22T01:56:10;93689.00;;;7.90
41940;BMP180;23057;48.554;14.454;2023-11-22T01:58:41;93685.00;;;7.90
41940;BMP180;23057;48.554;14.454;2023-11-22T02:01:13;93682.00;;;7.90
41940;BMP180;23057;48.554;14.454;2023-11-22T02:03:46;93690.00;;;7.80
41940;BMP180;23057;48.554;14.454;2023-11-22T02:06:20;93688.00;;;7.80
41940;BMP180;23057;48.554;14.454;2023-11-22T02:08:52;93691.00;;;7.80
41940;BMP180;23057;48.554;14.454;2023-11-22T02:11:22;93699.00;;;7.80
41940;BMP180;23057;48.554;14.454;2023-11-22T02:13:54;93703.00;;;7.80
41940;BMP180;23057;48.554;14.454;2023-11-22T02:16:26;93712.00;;;7.80
41940;BMP180;23057;48.554;14.454;2023-11-22T02:18:58;93698.00;;;7.70
41940;BMP180;23057;48.554;14.454;2023-11-22T02:21:29;93702.00;;;7.80
41940;BMP180;23057;48.554;14.454;2023-11-22T02:24:00;93694.00;;;7.80
41940;BMP180;23057;48.554;14.454;2023-11-22T02:26:30;93697.00;;;7.70
41940;BMP180;23057;48.554;14.454;2023-11-22T02:29:02;93699.00;;;7.70
41940;BMP180;23057;48.554;14.454;2023-11-22T02:31:37;93699.00;;;7.70
41940;BMP180;23057;48.554;14.454;2023-11-22T02:34:07;93701.00;;;7.70
41940;BMP180;23057;48.554;14.454;2023-11-22T02:36:38;93716.00;;;7.70
41940;BMP180;23057;48.554;14.454;2023-11-22T02:39:09;93729.00;;;7.70
41940;BMP180;23057;48.554;14.454;2023-11-22T02:41:41;93728.00;;;7.70
41940;BMP180;23057;48.554;14.454;2023-11-22T02:44:12;93728.00;;;7.70
41940;BMP180;23057;48.554;14.454;2023-11-22T02:46:47;93724.00;;;7.70
41940;BMP180;23057;48.554;14.454;2023-11-22T02:49:18;93737.00;;;7.70
41940;BMP180;23057;48.554;14.454;2023-11-22T02:51:50;93739.00;;;7.70
41940;BMP180;23057;48.554;14.454;2023-11-22T02:54:21;93737.00;;;7.70
41940;BMP180;23057;48.554;14.454;2023-11-22T02:56:51;93751.00;;;7.70
41940;BMP180;23057;48.554;14.454;2023-11-22T02:59:22;93749.00;;;7.70
41940;BMP180;23057;48.554;14.454;2023-11-22T03:01:53;93759.00;;;7.70
41940;BMP180;23057;48.554;14.454;2023-11-22T03:04:24;93763.00;;;7.70
41940;BMP180;23057;48.554;14.454;2023-11-22T03:06:54;93761.00;;;7.60
41940;BMP180;23057;48.554;14.454;2023-11-22T03:09:26;93769.00;;;7.50
41940;BMP180;23057;48.554;14.454;2023-11-22T03:11:56;93770.00;;;7.40
41940;BMP180;23057;48.554;14.454;2023-11-22T03:14:27;93781.00;;;7.40
41940;BMP180;23057;48.554;14.454;2023-11-22T03:16:59;93771.00;;;7.40
41940;BMP180;23057;48.554;14.454;2023-11-22T03:19:30;93777.00;;;7.30
41940;BMP180;23057;48.554;14.454;2023-11-22T03:22:01;93790.00;;;7.30
41940;BMP180;23057;48.554;14.454;2023-11-22T03:24:35;93783.00;;;7.30
41940;BMP180;23057;48.554;14.454;2023-11-22T03:27:08;93788.00;;;7.20
41940;BMP180;23057;48.554;14.454;2023-11-22T03:29:41;93793.00;;;7.20
41940;BMP180;23057;48.554;14.454;2023-11-22T03:32:12;93801.00;;;7.20
41940;BMP180;23057;48.554;14.454;2023-11-22T03:34:43;93803.00;;;7.20
41940;BMP180;23057;48.554;14.454;2023-11-22T03:37:13;93806.00;;;7.10
41940;BMP180;23057;48.554;14.454;2023-11-22T03:39:44;93804.00;;;7.20
41940;BMP180;23057;48.554;14.454;2023-11-22T03:42:18;93795.00;;;7.20
41940;BMP180;23057;48.554;14.454;2023-11-22T03:44:49;93811.00;;;7.20
41940;BMP180;23057;48.554;14.454;2023-11-22T03:47:21;93811.00;;;7.10
41940;BMP180;23057;48.554;14.454;2023-11-22T03:49:52;93827.00;;;7.20
41940;BMP180;23057;48.554;14.454;2023-11-22T03:52:22;93828.00;;;7.20
41940;BMP180;23057;48.554;14.454;2023-11-22T03:54:53;93829.00;;;7.20
41940;BMP180;23057;48.554;14.454;2023-11-22T03:57:24;93838.00;;;7.20
41940;BMP180;23057;48.554;14.454;2023-11-22T03:59:55;93836.00;;;7.20
41940;BMP180;23057;48.554;14.454;2023-11-22T04:02:25;93839.00;;;7.20
41940;BMP180;23057;48.554;14.454;2023-11-22T04:04:58;93841.00;;;7.20
41940;BMP180;23057;48.554;14.454;2023-11-22T04:07:30;93844.00;;;7.20
41940;BMP180;23057;48.554;14.454;2023-11-22T04:10:00;93842.00;;;7.20
41940;BMP180;23057;48.554;14.454;2023-11-22T04:12:31;93852.00;;;7.20
41940;BMP180;23057;48.554;14.454;2023-11-22T04:15:04;93850.00;;;7.20
41940;BMP180;23057;48.554;14.454;2023-11-22T04:17:39;93842.00;;;7.20
41940;BMP180;23057;48.554;14.454;2023-11-22T04:20:11;93838.00;;;7.10
41940;BMP180;23057;48.554;14.454;2023-11-22T04:22:45;93842.00;;;7.10
41940;BMP180;23057;48.554;14.454;2023-11-22T04:25:16;93850.00;;;7.10
41940;BMP180;23057;48.554;14.454;2023-11-22T04:27:47;93852.00;;;7.10
41940;BMP180;23057;48.554;14.454;2023-11-22T04:30:18;93855.00;;;7.10
41940;BMP180;23057;48.554;14.454;2023-11-22T04:32:49;93858.00;;;7.10
41940;BMP180;23057;48.554;14.454;2023-11-22T04:35:19;93855.00;;;7.00
41940;BMP180;23057;48.554;14.454;2023-11-22T04:37:50;93858.00;;;7.10
41940;BMP180;23057;48.554;14.454;2023-11-22T04:40:21;93859.00;;;7.00
41940;BMP180;23057;48.554;14.454;2023-11-22T04:42:52;93860.00;;;7.00
41940;BMP180;23057;48.554;14.454;2023-11-22T04:45:23;93861.00;;;7.10
41940;BMP180;23057;48.554;14.454;2023-11-22T04:47:53;93868.00;;;7.00
41940;BMP180;23057;48.554;14.454;2023-11-22T04:50:27;93872.00;;;7.00
41940;BMP180;23057;48.554;14.454;2023-11-22T04:52:58;93885.00;;;7.00
41940;BMP180;23057;48.554;14.454;2023-11-22T04:55:29;93889.00;;;7.00
41940;BMP180;23057;48.554;14.454;2023-11-22T04:58:00;93891.00;;;6.90
41940;BMP180;23057;48.554;14.454;2023-11-22T05:00:31;93897.00;;;6.90
41940;BMP180;23057;48.554;14.454;2023-11-22T05:03:01;93901.00;;;6.90
41940;BMP180;23057;48.554;14.454;2023-11-22T05:05:32;93898.00;;;7.00
41940;BMP180;23057;48.554;14.454;2023-11-22T05:08:03;93903.00;;;7.00
41940;BMP180;23057;48.554;14.454;2023-11-22T05:10:34;93903.00;;;7.00
41940;BMP180;23057;48.554;14.454;2023-11-22T05:13:05;93911.00;;;6.90
41940;BMP180;23057;48.554;14.454;2023-11-22T05:15:36;93913.00;;;6.90
41940;BMP180;23057;48.554;14.454;2023-11-22T05:18:07;93919.00;;;6.90
41940;BMP180;23057;48.554;14.454;2023-11-22T05:20:38;93913.00;;;6.90
41940;BMP180;23057;48.554;14.454;2023-11-22T05:23:09;93902.00;;;6.90
41940;BMP180;23057;48.554;14.454;2023-11-22T05:25:40;93904.00;;;6.80
41940;BMP180;23057;48.554;14.454;2023-11-22T05:28:11;93907.00;;;6.80
41940;BMP180;23057;48.554;14.454;2023-11-22T05:30:42;93908.00;;;6.80
41940;BMP180;23057;48.554;14.454;2023-11-22T05:33:14;93922.00;;;6.80
41940;BMP180;23057;48.554;14.454;2023-11-22T05:35:45;93916.00;;;6.70
41940;BMP180;23057;48.554;14.454;2023-11-22T05:38:15;93929.00;;;6.70
41940;BMP180;23057;48.554;14.454;2023-11-22T05:40:46;93933.00;;;6.70
41940;BMP180;23057;48.554;14.454;2023-11-22T05:43:17;93939.00;;;6.70
41940;BMP180;23057;48.554;14.454;2023-11-22T05:45:48;93926.00;;;6.60
41940;BMP180;23057;48.554;14.454;2023-11-22T05:48:20;93939.00;;;6.60
41940;BMP180;23057;48.554;14.454;2023-11-22T05:50:51;93944.00;;;6.60
41940;BMP180;23057;48.554;14.454;2023-11-22T05:53:22;93955.00;;;6.60
41940;BMP180;23057;48.554;14.454;2023-11-22T05:55:53;93956.00;;;6.50
41940;BMP180;23057;48.554;14.454;2023-11-22T05:58:23;93963.00;;;6.50
41940;BMP180;23057;48.554;14.454;2023-11-22T06:00:54;93963.00;;;6.60
41940;BMP180;23057;48.554;14.454;2023-11-22T06:03:25;93974.00;;;6.60
41940;BMP180;23057;48.554;14.454;2023-11-22T06:05:56;93989.00;;;6.70
41940;BMP180;23057;48.554;14.454;2023-11-22T06:08:27;93987.00;;;6.60
41940;BMP180;23057;48.554;14.454;2023-11-22T06:10:58;93987.00;;;6.60
41940;BMP180;23057;48.554;14.454;2023-11-22T06:13:30;93989.00;;;6.60
41940;BMP180;23057;48.554;14.454;2023-11-22T06:16:02;93996.00;;;6.60
41940;BMP180;23057;48.554;14.454;2023-11-22T06:18:33;94001.00;;;6.70
41940;BMP180;23057;48.554;14.454;2023-11-22T06:21:04;94003.00;;;6.70
41940;BMP180;23057;48.554;14.454;2023-11-22T06:23:36;93995.00;;;6.70
41940;BMP180;23057;48.554;14.454;2023-11-22T06:26:06;94005.00;;;6.70
41940;BMP180;23057;48.554;14.454;2023-11-22T06:28:37;94006.00;;;6.70
41940;BMP180;23057;48.554;14.454;2023-11-22T06:31:08;94017.00;;;6.70
41940;BMP180;23057;48.554;14.454;2023-11-22T06:33:39;94023.00;;;6.70
41940;BMP180;23057;48.554;14.454;2023-11-22T06:36:10;94041.00;;;6.70
41940;BMP180;23057;48.554;14.454;2023-11-22T06:38:42;94037.00;;;6.70
41940;BMP180;23057;48.554;14.454;2023-11-22T06:41:12;94043.00;;;6.70
41940;BMP180;23057;48.554;14.454;2023-11-22T06:43:43;94040.00;;;6.70
41940;BMP180;23057;48.554;14.454;2023-11-22T06:46:15;94039.00;;;6.70
41940;BMP180;23057;48.554;14.454;2023-11-22T06:48:47;94036.00;;;6.70
41940;BMP180;23057;48.554;14.454;2023-11-22T06:51:19;94043.00;;;6.60
41940;BMP180;23057;48.554;14.454;2023-11-22T06:53:50;94053.00;;;6.70
41940;BMP180;23057;48.554;14.454;2023-11-22T06:56:25;94051.00;;;6.70
41940;BMP180;23057;48.554;14.454;2023-11-22T06:58:56;94036.00;;;6.70
41940;BMP180;23057;48.554;14.454;2023-11-22T07:01:27;94037.00;;;6.60
41940;BMP180;23057;48.554;14.454;2023-11-22T07:03:58;94052.00;;;6.60
41940;BMP180;23057;48.554;14.454;2023-11-22T07:06:29;94048.00;;;6.60
41940;BMP180;23057;48.554;14.454;2023-11-22T07:09:00;94053.00;;;6.60
41940;BMP180;23057;48.554;14.454;2023-11-22T07:11:32;94066.00;;;6.60
41940;BMP180;23057;48.554;14.454;2023-11-22T07:14:03;94067.00;;;6.60
41940;BMP180;23057;48.554;14.454;2023-11-22T07:16:34;94069.00;;;6.60
41940;BMP180;23057;48.554;14.454;2023-11-22T07:19:05;94082.00;;;6.60
41940;BMP180;23057;48.554;14.454;2023-11-22T07:21:37;94093.00;;;6.60
41940;BMP180;23057;48.554;14.454;2023-11-22T07:24:08;94100.00;;;6.50
41940;BMP180;23057;48.554;14.454;2023-11-22T07:26:39;94100.00;;;6.50
41940;BMP180;23057;48.554;14.454;2023-11-22T07:29:10;94093.00;;;6.50
41940;BMP180;23057;48.554;14.454;2023-11-22T07:31:42;94094.00;;;6.50
41940;BMP180;23057;48.554;14.454;2023-11-22T07:34:13;94092.00;;;6.50
41940;BMP180;23057;48.554;14.454;2023-11-22T07:36:44;94095.00;;;6.50
41940;BMP180;23057;48.554;14.454;2023-11-22T07:39:14;94101.00;;;6.50
41940;BMP180;23057;48.554;14.454;2023-11-22T07:41:49;94102.00;;;6.50
41940;BMP180;23057;48.554;14.454;2023-11-22T07:44:24;94102.00;;;6.40
41940;BMP180;23057;48.554;14.454;2023-11-22T07:46:55;94102.00;;;6.40
41940;BMP180;23057;48.554;14.454;2023-11-22T07:49:27;94105.00;;;6.40
41940;BMP180;23057;48.554;14.454;2023-11-22T07:51:59;94106.00;;;6.40
41940;BMP180;23057;48.554;14.454;2023-11-22T07:54:31;94096.00;;;6.40
41940;BMP180;23057;48.554;14.454;2023-11-22T07:57:02;94119.00;;;6.30
41940;BMP180;23057;48.554;14.454;2023-11-22T07:59:33;94124.00;;;6.30
41940;BMP180;23057;48.554;14.454;2023-11-22T08:02:05;94135.00;;;6.30
41940;BMP180;23057;48.554;14.454;2023-11-22T08:04:42;94134.00;;;6.30
41940;BMP180;23057;48.554;14.454;2023-11-22T08:07:15;94145.00;;;6.20
41940;BMP180;23057;48.554;14.454;2023-11-22T08:09:47;94151.00;;;6.20
41940;BMP180;23057;48.554;14.454;2023-11-22T08:12:18;94148.00;;;6.20
41940;BMP180;23057;48.554;14.454;2023-11-22T08:14:49;94161.00;;;6.20
41940;BMP180;23057;48.554;14.454;2023-11-22T08:17:21;94163.00;;;6.20
41940;BMP180;23057;48.554;14.454;2023-11-22T08:19:51;94166.00;;;6.20
41940;BMP180;23057;48.554;14.454;2023-11-22T08:22:23;94162.00;;;6.20
41940;BMP180;23057;48.554;14.454;2023-11-22T08:24:56;94157.00;;;6.30
41940;BMP180;23057;48.554;14.454;2023-11-22T08:27:27;94167.00;;;6.30
41940;BMP180;23057;48.554;14.454;2023-11-22T08:29:58;94169.00;;;6.30
41940;BMP180;23057;48.554;14.454;2023-11-22T08:32:29;94177.00;;;6.30
41940;BMP180;23057;48.554;14.454;2023-11-22T08:35:01;94184.00;;;6.30
41940;BMP180;23057;48.554;14.454;2023-11-22T08:37:36;94181.00;;;6.40
41940;BMP180;23057;48.554;14.454;2023-11-22T08:40:10;94176.00;;;6.40
41940;BMP180;23057;48.554;14.454;2023-11-22T08:42:42;94187.00;;;6.30
41940;BMP180;23057;48.554;14.454;2023-11-22T08:45:14;94201.00;;;6.30
41940;BMP180;23057;48.554;14.454;2023-11-22T08:47:45;94197.00;;;6.30
41940;BMP180;23057;48.554;14.454;2023-11-22T08:50:16;94190.00;;;6.30
41940;BMP180;23057;48.554;14.454;2023-11-22T08:52:47;94199.00;;;6.30
41940;BMP180;23057;48.554;14.454;2023-11-22T08:55:22;94209.00;;;6.30
41940;BMP180;23057;48.554;14.454;2023-11-22T08:57:52;94211.00;;;6.30
41940;BMP180;23057;48.554;14.454;2023-11-22T09:00:23;94216.00;;;6.20
41940;BMP180;23057;48.554;14.454;2023-11-22T09:02:58;94224.00;;;6.20
41940;BMP180;23057;48.554;14.454;2023-11-22T09:05:29;94233.00;;;6.20
41940;BMP180;23057;48.554;14.454;2023-11-22T09:08:00;94243.00;;;6.20
41940;BMP180;23057;48.554;14.454;2023-11-22T09:10:31;94245.00;;;6.20
41940;BMP180;23057;48.554;14.454;2023-11-22T09:13:01;94257.00;;;6.20
41940;BMP180;23057;48.554;14.454;2023-11-22T09:15:32;94260.00;;;6.20
41940;BMP180;23057;48.554;14.454;2023-11-22T09:18:04;94278.00;;;6.20
41940;BMP180;23057;48.554;14.454;2023-11-22T09:20:36;94278.00;;;6.20
41940;BMP180;23057;48.554;14.454;2023-11-22T09:23:07;94276.00;;;6.30
41940;BMP180;23057;48.554;14.454;2023-11-22T09:25:39;94286.00;;;6.20
41940;BMP180;23057;48.554;14.454;2023-11-22T09:28:10;94278.00;;;6.20
41940;BMP180;23057;48.554;14.454;2023-11-22T09:30:41;94266.00;;;6.30
41940;BMP180;23057;48.554;14.454;2023-11-22T09:33:15;94245.00;;;6.30
41940;BMP180;23057;48.554;14.454;2023-11-22T09:35:46;94241.00;;;6.30
41940;BMP180;23057;48.554;14.454;2023-11-22T09:38:18;94234.00;;;6.30
41940;BMP180;23057;48.554;14.454;2023-11-22T09:40:49;94243.00;;;6.30
41940;BMP180;23057;48.554;14.454;2023-11-22T09:43:22;94247.00;;;6.30
41940;BMP180;23057;48.554;14.454;2023-11-22T09:45:55;94272.00;;;6.30
41940;BMP180;23057;48.554;14.454;2023-11-22T09:48:26;94288.00;;;6.40
41940;BMP180;23057;48.554;14.454;2023-11-22T09:51:08;94291.00;;;6.30
41940;BMP180;23057;48.554;14.454;2023-11-22T09:54:06;94288.00;;;6.40
41940;BMP180;23057;48.554;14.454;2023-11-22T09:56:45;94274.00;;;6.40
41940;BMP180;23057;48.554;14.454;2023-11-22T09:59:21;94284.00;;;6.40
41940;BMP180;23057;48.554;14.454;2023-11-22T10:01:54;94289.00;;;6.40
41940;BMP180;23057;48.554;14.454;2023-11-22T10:04:24;94286.00;;;6.40
41940;BMP180;23057;48.554;14.454;2023-11-22T10:06:57;94293.00;;;6.40
41940;BMP180;23057;48.554;14.454;2023-11-22T10:09:31;94279.00;;;6.40
41940;BMP180;23057;48.554;14.454;2023-11-22T10:12:05;94278.00;;;6.50
41940;BMP180;23057;48.554;14.454;2023-11-22T10:14:36;94277.00;;;6.50
41940;BMP180;23057;48.554;14.454;2023-11-22T10:17:07;94281.00;;;6.50
41940;BMP180;23057;48.554;14.454;2023-11-22T10:19:39;94272.00;;;6.50
41940;BMP180;23057;48.554;14.454;2023-11-22T10:22:10;94274.00;;;6.60
41940;BMP180;23057;48.554;14.454;2023-11-22T10:24:46;94280.00;;;6.60
41940;BMP180;23057;48.554;14.454;2023-11-22T10:27:17;94278.00;;;6.70
41940;BMP180;23057;48.554;14.454;2023-11-22T10:29:48;94277.00;;;6.70
41940;BMP180;23057;48.554;14.454;2023-11-22T10:32:19;94284.00;;;6.70
41940;BMP180;23057;48.554;14.454;2023-11-22T10:34:50;94283.00;;;6.70
41940;BMP180;23057;48.554;14.454;2023-11-22T10:37:21;94286.00;;;6.70
41940;BMP180;23057;48.554;14.454;2023-11-22T10:39:55;94287.00;;;6.70
41940;BMP180;23057;48.554;14.454;2023-11-22T10:42:26;94291.00;;;6.60
41940;BMP180;23057;48.554;14.454;2023-11-22T10:45:00;94287.00;;;6.60
41940;BMP180;23057;48.554;14.454;2023-11-22T10:47:37;94292.00;;;6.60
41940;BMP180;23057;48.554;14.454;2023-11-22T10:50:12;94296.00;;;6.60
41940;BMP180;23057;48.554;14.454;2023-11-22T10:52:47;94300.00;;;6.70
41940;BMP180;23057;48.554;14.454;2023-11-22T10:55:27;94301.00;;;6.70
41940;BMP180;23057;48.554;14.454;2023-11-22T10:58:03;94312.00;;;6.80
41940;BMP180;23057;48.554;14.454;2023-11-22T11:00:36;94318.00;;;6.80
41940;BMP180;23057;48.554;14.454;2023-11-22T11:03:17;94315.00;;;6.80
41940;BMP180;23057;48.554;14.454;2023-11-22T11:06:10;94327.00;;;6.80
41940;BMP180;23057;48.554;14.454;2023-11-22T11:08:45;94320.00;;;6.80
41940;BMP180;23057;48.554;14.454;2023-11-22T11:11:18;94320.00;;;6.80
41940;BMP180;23057;48.554;14.454;2023-11-22T11:13:51;94320.00;;;6.70
41940;BMP180;23057;48.554;14.454;2023-11-22T11:16:24;94325.00;;;6.60
41940;BMP180;23057;48.554;14.454;2023-11-22T11:18:55;94344.00;;;6.60
41940;BMP180;23057;48.554;14.454;2023-11-22T11:21:26;94332.00;;;6.60
41940;BMP180;23057;48.554;14.454;2023-11-22T11:23:57;94334.00;;;6.60
41940;BMP180;23057;48.554;14.454;2023-11-22T11:26:34;94326.00;;;6.60
41940;BMP180;23057;48.554;14.454;2023-11-22T11:29:05;94327.00;;;6.60
41940;BMP180;23057;48.554;14.454;2023-11-22T11:31:41;94323.00;;;6.70
41940;BMP180;23057;48.554;14.454;2023-11-22T11:34:12;94332.00;;;6.80
41940;BMP180;23057;48.554;14.454;2023-11-22T11:36:52;94335.00;;;6.80
41940;BMP180;23057;48.554;14.454;2023-11-22T11:39:27;94341.00;;;6.80
41940;BMP180;23057;48.554;14.454;2023-11-22T11:42:10;94354.00;;;6.90
41940;BMP180;23057;48.554;14.454;2023-11-22T11:45:10;94352.00;;;6.90
41940;BMP180;23057;48.554;14.454;2023-11-22T11:47:41;94345.00;;;6.80
41940;BMP180;23057;48.554;14.454;2023-11-22T11:50:14;94353.00;;;6.80
41940;BMP180;23057;48.554;14.454;2023-11-22T11:52:45;94338.00;;;6.80
41940;BMP180;23057;48.554;14.454;2023-11-22T11:55:16;94337.00;;;6.80
41940;BMP180;23057;48.554;14.454;2023-11-22T11:57:47;94348.00;;;6.70
41940;BMP180;23057;48.554;14.454;2023-11-22T12:00:19;94359.00;;;6.70
41940;BMP180;23057;48.554;14.454;2023-11-22T12:02:50;94355.00;;;6.60
41940;BMP180;23057;48.554;14.454;2023-11-22T12:05:21;94365.00;;;6.70
41940;BMP180;23057;48.554;14.454;2023-11-22T12:07:52;94355.00;;;6.70
41940;BMP180;23057;48.554;14.454;2023-11-22T12:10:23;94352.00;;;6.70
41940;BMP180;23057;48.554;14.454;2023-11-22T12:12:54;94369.00;;;6.60
41940;BMP180;23057;48.554;14.454;2023-11-22T12:15:25;94356.00;;;6.50
41940;BMP180;23057;48.554;14.454;2023-11-22T12:17:56;94363.00;;;6.50
41940;BMP180;23057;48.554;14.454;2023-11-22T12:20:27;94374.00;;;6.40
41940;BMP180;23057;48.554;14.454;2023-11-22T12:23:02;94368.00;;;6.50
41940;BMP180;23057;48.554;14.454;2023-11-22T12:25:33;94376.00;;;6.50
41940;BMP180;23057;48.554;14.454;2023-11-22T12:28:05;94367.00;;;6.50
41940;BMP180;23057;48.554;14.454;2023-11-22T12:30:37;94361.00;;;6.50
41940;BMP180;23057;48.554;14.454;2023-11-22T12:33:10;94347.00;;;6.50
41940;BMP180;23057;48.554;14.454;2023-11-22T12:35:47;94350.00;;;6.50
41940;BMP180;23057;48.554;14.454;2023-11-22T12:38:20;94340.00;;;6.60
41940;BMP180;23057;48.554;14.454;2023-11-22T12:40:51;94330.00;;;6.50
41940;BMP180;23057;48.554;14.454;2023-11-22T12:43:22;94329.00;;;6.50
41940;BMP180;23057;48.554;14.454;2023-11-22T12:46:07;94333.00;;;6.40
41940;BMP180;23057;48.554;14.454;2023-11-22T12:48:38;94336.00;;;6.40
41940;BMP180;23057;48.554;14.454;2023-11-22T12:51:18;94331.00;;;6.30
41940;BMP180;23057;48.554;14.454;2023-11-22T12:53:57;94325.00;;;6.30
41940;BMP180;23057;48.554;14.454;2023-11-22T12:56:27;94322.00;;;6.30
41940;BMP180;23057;48.554;14.454;2023-11-22T12:58:59;94317.00;;;6.30
41940;BMP180;23057;48.554;14.454;2023-11-22T13:01:31;94339.00;;;6.30
41940;BMP180;23057;48.554;14.454;2023-11-22T13:04:02;94331.00;;;6.30
41940;BMP180;23057;48.554;14.454;2023-11-22T13:06:34;94343.00;;;6.40
41940;BMP180;23057;48.554;14.454;2023-11-22T13:09:04;94345.00;;;6.40
41940;BMP180;23057;48.554;14.454;2023-11-22T13:11:35;94354.00;;;6.40
41940;BMP180;23057;48.554;14.454;2023-11-22T13:14:06;94354.00;;;6.40
41940;BMP180;23057;48.554;14.454;2023-11-22T13:16:37;94348.00;;;6.40
41940;BMP180;23057;48.554;14.454;2023-11-22T13:19:09;94345.00;;;6.30
41940;BMP180;23057;48.554;14.454;2023-11-22T13:21:40;94352.00;;;6.30
41940;BMP180;23057;48.554;14.454;2023-11-22T13:24:11;94351.00;;;6.30
41940;BMP180;23057;48.554;14.454;2023-11-22T13:26:44;94355.00;;;6.30
41940;BMP180;23057;48.554;14.454;2023-11-22T13:29:15;94362.00;;;6.40
41940;BMP180;23057;48.554;14.454;2023-11-22T13:31:46;94368.00;;;6.40
41940;BMP180;23057;48.554;14.454;2023-11-22T13:34:16;94364.00;;;6.40
41940;BMP180;23057;48.554;14.454;2023-11-22T13:36:47;94359.00;;;6.50
41940;BMP180;23057;48.554;14.454;2023-11-22T13:39:18;94369.00;;;6.60
41940;BMP180;23057;48.554;14.454;2023-11-22T13:41:49;94368.00;;;6.60
41940;BMP180;23057;48.554;14.454;2023-11-22T13:44:20;94364.00;;;6.60
41940;BMP180;23057;48.554;14.454;2023-11-22T13:46:51;94365.00;;;6.60
41940;BMP180;23057;48.554;14.454;2023-11-22T13:49:24;94359.00;;;6.50
41940;BMP180;23057;48.554;14.454;2023-11-22T13:51:55;94360.00;;;6.50
41940;BMP180;23057;48.554;14.454;2023-11-22T13:54:26;94353.00;;;6.50
41940;BMP180;23057;48.554;14.454;2023-11-22T13:56:57;94354.00;;;6.50
41940;BMP180;23057;48.554;14.454;2023-11-22T13:59:28;94360.00;;;6.40
41940;BMP180;23057;48.554;14.454;2023-11-22T14:01:58;94372.00;;;6.40
41940;BMP180;23057;48.554;14.454;2023-11-22T14:04:29;94372.00;;;6.40
41940;BMP180;23057;48.554;14.454;2023-11-22T14:07:01;94368.00;;;6.50
41940;BMP180;23057;48.554;14.454;2023-11-22T14:09:32;94368.00;;;6.50
41940;BMP180;23057;48.554;14.454;2023-11-22T14:12:07;94374.00;;;6.50
41940;BMP180;23057;48.554;14.454;2023-11-22T14:14:37;94378.00;;;6.50
41940;BMP180;23057;48.554;14.454;2023-11-22T14:17:08;94384.00;;;6.50
41940;BMP180;23057;48.554;14.454;2023-11-22T14:19:39;94394.00;;;6.50
41940;BMP180;23057;48.554;14.454;2023-11-22T14:22:10;94387.00;;;6.50
41940;BMP180;23057;48.554;14.454;2023-11-22T14:24:41;94396.00;;;6.50
41940;BMP180;23057;48.554;14.454;2023-11-22T14:27:12;94408.00;;;6.50
41940;BMP180;23057;48.554;14.454;2023-11-22T14:29:43;94407.00;;;6.50
41940;BMP180;23057;48.554;14.454;2023-11-22T14:32:19;94416.00;;;6.60
41940;BMP180;23057;48.554;14.454;2023-11-22T14:34:51;94422.00;;;6.60